createdAt,value
2022-11-24T00:02:01.917Z,7.51
2022-11-24T00:04:06.308Z,6.40
2022-11-24T00:06:11.326Z,5.55
2022-11-24T00:08:14.887Z,5.39
2022-11-24T00:10:17.833Z,6.69
2022-11-24T00:12:20.710Z,7.75
2022-11-24T00:14:23.562Z,8.06
2022-11-24T00:16:29.199Z,7.37
2022-11-24T00:18:32.125Z,6.37
2022-11-24T00:20:34.934Z,5.51
2022-11-24T00:22:37.714Z,5.00
2022-11-24T00:24:40.742Z,5.83
2022-11-24T00:26:43.528Z,6.85
2022-11-24T00:28:48.209Z,7.23
2022-11-24T00:30:51.004Z,7.33
2022-11-24T00:32:53.845Z,7.82
2022-11-24T00:34:56.696Z,8.13
2022-11-24T00:36:59.626Z,7.24
2022-11-24T00:39:10.352Z,6.13
2022-11-24T00:41:13.979Z,5.51
2022-11-24T00:43:16.832Z,6.40
2022-11-24T00:45:19.642Z,7.76
2022-11-24T00:47:22.507Z,8.44
2022-11-24T00:49:25.412Z,7.62
2022-11-24T00:51:30.421Z,6.42
2022-11-24T00:53:33.944Z,5.37
2022-11-24T00:55:36.762Z,4.87
2022-11-24T00:57:39.496Z,5.79
2022-11-24T00:59:42.400Z,6.92
2022-11-24T01:01:45.366Z,7.53
2022-11-24T01:03:48.646Z,8.03
2022-11-24T01:05:51.436Z,8.19
2022-11-24T01:07:54.239Z,7.41
2022-11-24T01:09:57.196Z,6.25
2022-11-24T01:12:04.198Z,5.33
2022-11-24T01:14:07.076Z,4.72
2022-11-24T01:16:23.968Z,5.01
2022-11-24T01:18:27.450Z,5.85
2022-11-24T01:20:30.796Z,6.57
2022-11-24T01:22:35.081Z,7.12
2022-11-24T01:24:37.858Z,7.24
2022-11-24T01:26:40.791Z,7.82
2022-11-24T01:28:47.100Z,7.87
2022-11-24T01:31:00.256Z,6.84
2022-11-24T01:33:03.187Z,5.66
2022-11-24T01:35:07.052Z,5.58
2022-11-24T01:37:10.030Z,6.84
2022-11-24T01:39:13.573Z,7.98
2022-11-24T01:41:27.368Z,8.19
2022-11-24T01:43:30.358Z,7.02
2022-11-24T01:45:40.813Z,5.90
2022-11-24T01:47:44.443Z,5.25
2022-11-24T01:49:51.760Z,5.99
2022-11-24T01:52:20.051Z,7.34
2022-11-24T01:54:28.528Z,8.19
2022-11-24T01:56:33.648Z,7.29
2022-11-24T01:58:38.074Z,6.09
2022-11-24T02:00:44.234Z,5.11
2022-11-24T02:02:47.196Z,4.77
2022-11-24T02:04:51.123Z,6.00
2022-11-24T02:06:57.737Z,7.18
2022-11-24T02:09:07.390Z,8.21
2022-11-24T02:11:10.301Z,8.09
2022-11-24T02:13:14.945Z,6.95
2022-11-24T02:15:18.892Z,5.87
2022-11-24T02:17:22.457Z,5.00
2022-11-24T02:19:40.323Z,4.74
2022-11-24T02:21:43.267Z,6.38
2022-11-24T02:24:22.855Z,7.85
2022-11-24T02:26:41.432Z,7.91
2022-11-24T02:28:44.471Z,6.77
2022-11-24T02:30:48.594Z,5.80
2022-11-24T02:32:52.684Z,4.98
2022-11-24T02:35:04.255Z,5.01
2022-11-24T02:37:07.427Z,6.78
2022-11-24T02:39:15.286Z,7.97
2022-11-24T02:41:21.745Z,7.57
2022-11-24T02:43:24.619Z,6.51
2022-11-24T02:45:28.670Z,5.57
2022-11-24T02:47:31.561Z,5.10
2022-11-24T02:49:34.446Z,6.06
2022-11-24T02:51:37.259Z,7.24
2022-11-24T02:53:40.185Z,8.36
2022-11-24T02:55:42.979Z,8.78
2022-11-24T02:57:46.119Z,7.87
2022-11-24T02:59:49.007Z,6.75
2022-11-24T03:01:51.997Z,5.84
2022-11-24T03:03:54.760Z,5.30
2022-11-24T03:05:57.597Z,6.56
2022-11-24T03:08:00.362Z,7.80
2022-11-24T03:10:03.936Z,7.20
2022-11-24T03:12:07.163Z,6.12
2022-11-24T03:14:10.248Z,5.19
2022-11-24T03:16:13.247Z,4.99
2022-11-24T03:18:16.117Z,5.69
2022-11-24T03:20:19.028Z,6.55
2022-11-24T03:22:21.787Z,7.18
2022-11-24T03:24:24.672Z,7.54
2022-11-24T03:26:28.038Z,7.63
2022-11-24T03:28:30.761Z,6.85
2022-11-24T03:30:33.577Z,5.90
2022-11-24T03:32:36.390Z,5.11
2022-11-24T03:34:39.217Z,4.54
2022-11-24T03:36:42.108Z,4.67
2022-11-24T03:38:45.790Z,5.81
2022-11-24T03:40:48.575Z,6.86
2022-11-24T03:42:51.359Z,7.74
2022-11-24T03:44:54.135Z,8.27
2022-11-24T03:46:56.905Z,7.70
2022-11-24T03:48:59.829Z,6.69
2022-11-24T03:51:03.342Z,5.81
2022-11-24T03:53:06.094Z,5.13
2022-11-24T03:55:08.967Z,4.77
2022-11-24T03:57:11.805Z,5.25
2022-11-24T03:59:14.866Z,6.02
2022-11-24T04:01:18.647Z,6.84
2022-11-24T04:03:21.788Z,7.42
2022-11-24T04:05:25.438Z,8.09
2022-11-24T04:07:28.329Z,8.50
2022-11-24T04:09:31.163Z,7.81
2022-11-24T04:11:52.922Z,6.86
2022-11-24T04:13:55.746Z,5.92
2022-11-24T04:15:58.666Z,5.24
2022-11-24T04:18:01.440Z,5.07
2022-11-24T04:20:05.444Z,6.45
2022-11-24T04:22:09.066Z,8.00
2022-11-24T04:24:11.995Z,8.71
2022-11-24T04:26:14.903Z,7.95
2022-11-24T04:28:17.707Z,6.89
2022-11-24T04:30:21.679Z,6.04
2022-11-24T04:32:24.509Z,5.34
2022-11-24T04:34:27.313Z,4.76
2022-11-24T04:36:30.182Z,4.95
2022-11-24T04:39:24.793Z,6.21
2022-11-24T04:40:55.834Z,7.60
2022-11-24T04:42:58.693Z,8.45
2022-11-24T04:45:01.651Z,8.62
2022-11-24T04:47:04.884Z,7.67
2022-11-24T04:49:11.758Z,6.67
2022-11-24T04:51:15.592Z,5.84
2022-11-24T04:53:18.430Z,5.22
2022-11-24T04:55:21.362Z,5.10
2022-11-24T04:57:26.287Z,5.84
2022-11-24T04:59:29.141Z,6.74
2022-11-24T05:01:32.801Z,7.36
2022-11-24T05:03:36.965Z,7.68
2022-11-24T05:05:39.875Z,7.80
2022-11-24T05:07:42.735Z,7.92
2022-11-24T05:10:05.060Z,7.91
2022-11-24T05:12:07.881Z,6.99
2022-11-24T05:14:10.723Z,6.15
2022-11-24T05:16:13.580Z,5.45
2022-11-24T05:18:16.712Z,5.11
2022-11-24T05:20:20.308Z,5.66
2022-11-24T05:22:23.201Z,6.52
2022-11-24T05:24:26.037Z,7.14
2022-11-24T05:26:29.065Z,7.48
2022-11-24T05:28:32.484Z,7.69
2022-11-24T05:30:37.870Z,7.88
2022-11-24T05:32:40.807Z,7.89
2022-11-24T05:34:43.657Z,7.27
2022-11-24T05:36:56.515Z,6.43
2022-11-24T05:38:59.343Z,5.64
2022-11-24T05:41:03.740Z,5.22
2022-11-24T05:43:15.416Z,5.79
2022-11-24T05:45:20.413Z,6.65
2022-11-24T05:47:23.923Z,7.17
2022-11-24T05:49:26.677Z,7.53
2022-11-24T05:51:30.616Z,7.76
2022-11-24T05:53:33.418Z,7.93
2022-11-24T05:55:37.102Z,8.04
2022-11-24T05:57:39.903Z,8.00
2022-11-24T05:59:42.715Z,7.31
2022-11-24T06:01:45.608Z,6.49
2022-11-24T06:03:48.434Z,5.80
2022-11-24T06:05:51.445Z,5.49
2022-11-24T06:07:54.996Z,6.09
2022-11-24T06:09:57.807Z,6.78
2022-11-24T06:12:00.581Z,7.11
2022-11-24T06:14:08.236Z,7.27
2022-11-24T06:16:14.921Z,7.44
2022-11-24T06:18:17.821Z,7.59
2022-11-24T06:20:20.642Z,7.76
2022-11-24T06:25:10.889Z,7.74
2022-11-24T06:27:14.252Z,6.90
2022-11-24T06:29:17.075Z,6.11
2022-11-24T06:31:19.952Z,5.42
2022-11-24T06:33:22.882Z,5.07
2022-11-24T06:35:26.012Z,5.60
2022-11-24T06:37:28.977Z,6.38
2022-11-24T06:39:31.983Z,6.99
2022-11-24T06:41:34.844Z,7.34
2022-11-24T06:43:37.918Z,7.51
2022-11-24T06:45:40.801Z,7.56
2022-11-24T06:47:43.672Z,7.69
2022-11-24T06:49:46.564Z,7.99
2022-11-24T06:51:49.358Z,8.60
2022-11-24T06:53:52.258Z,9.15
2022-11-24T06:55:59.232Z,8.60
2022-11-24T06:58:02.252Z,7.54
2022-11-24T07:00:08.010Z,6.72
2022-11-24T07:02:10.953Z,6.06
2022-11-24T07:04:15.060Z,5.51
2022-11-24T07:06:19.712Z,5.32
2022-11-24T07:08:22.927Z,6.11
2022-11-24T07:10:25.847Z,7.08
2022-11-24T07:12:29.396Z,8.17
2022-11-24T07:14:32.493Z,9.21
2022-11-24T07:16:36.056Z,9.58
2022-11-24T07:18:38.911Z,8.63
2022-11-24T07:20:41.743Z,7.39
2022-11-24T07:22:44.722Z,6.40
2022-11-24T07:24:47.601Z,5.72
2022-11-24T07:26:50.637Z,6.35
2022-11-24T07:28:53.625Z,7.65
2022-11-24T07:30:57.014Z,8.40
2022-11-24T07:33:03.821Z,8.25
2022-11-24T07:35:06.949Z,7.31
2022-11-24T07:37:09.785Z,6.44
2022-11-24T07:39:12.837Z,5.71
2022-11-24T07:41:17.568Z,6.03
2022-11-24T07:43:20.511Z,7.29
2022-11-24T07:45:23.314Z,8.34
2022-11-24T07:47:26.097Z,9.03
2022-11-24T07:49:29.000Z,9.11
2022-11-24T07:51:31.925Z,8.09
2022-11-24T07:53:35.511Z,7.09
2022-11-24T07:55:38.659Z,6.32
2022-11-24T07:57:41.499Z,5.70
2022-11-24T07:59:44.283Z,5.48
2022-11-24T08:01:47.576Z,6.38
2022-11-24T08:03:50.511Z,7.22
2022-11-24T08:08:20.476Z,8.77
2022-11-24T08:10:23.396Z,9.07
2022-11-24T08:12:26.164Z,8.41
2022-11-24T08:14:29.063Z,7.30
2022-11-24T08:16:32.386Z,6.46
2022-11-24T08:18:36.474Z,5.79
2022-11-24T08:20:39.369Z,5.32
2022-11-24T08:22:42.743Z,5.62
2022-11-24T08:24:48.541Z,6.63
2022-11-24T08:26:51.369Z,7.78
2022-11-24T08:28:56.810Z,8.82
2022-11-24T08:31:09.190Z,9.00
2022-11-24T08:33:12.918Z,7.87
2022-11-24T08:35:15.857Z,6.89
2022-11-24T08:37:18.935Z,6.04
2022-11-24T08:39:21.795Z,5.43
2022-11-24T08:41:26.442Z,5.79
2022-11-24T08:43:29.372Z,6.76
2022-11-24T08:45:35.463Z,7.48
2022-11-24T08:47:42.917Z,8.08
2022-11-24T08:49:45.732Z,8.69
2022-11-24T08:51:50.880Z,8.27
2022-11-24T08:53:58.849Z,7.16
2022-11-24T08:56:02.746Z,6.13
2022-11-24T08:58:05.619Z,5.52
2022-11-24T09:00:09.162Z,5.78
2022-11-24T09:02:13.418Z,6.55
2022-11-24T09:04:16.380Z,7.06
2022-11-24T09:06:25.186Z,7.52
2022-11-24T09:08:29.855Z,8.28
2022-11-24T09:10:32.732Z,8.74
2022-11-24T09:12:35.673Z,8.14
2022-11-24T09:14:38.592Z,7.11
2022-11-24T09:16:41.625Z,6.35
2022-11-24T09:18:44.970Z,5.77
2022-11-24T09:20:48.149Z,5.48
2022-11-24T09:22:51.068Z,6.01
2022-11-24T09:24:53.818Z,7.31
2022-11-24T09:26:57.167Z,8.79
2022-11-24T09:29:01.892Z,9.37
2022-11-24T09:31:06.855Z,8.50
2022-11-24T09:33:09.860Z,7.47
2022-11-24T09:35:12.697Z,6.69
2022-11-24T09:37:15.710Z,6.08
2022-11-24T09:39:18.663Z,5.92
2022-11-24T09:41:34.298Z,6.69
2022-11-24T09:43:46.373Z,7.40
2022-11-24T09:46:06.033Z,8.18
2022-11-24T09:48:24.241Z,8.75
2022-11-24T09:50:34.331Z,9.23
2022-11-24T09:53:03.880Z,8.91
2022-11-24T09:55:24.049Z,7.77
2022-11-24T09:57:34.258Z,6.91
2022-11-24T09:59:42.116Z,6.51
2022-11-24T10:01:47.943Z,7.16
2022-11-24T10:03:52.759Z,8.25
2022-11-24T10:05:56.027Z,8.87
2022-11-24T10:08:23.168Z,8.65
2022-11-24T10:10:53.632Z,7.65
2022-11-24T10:13:02.241Z,6.67
2022-11-24T10:16:02.897Z,6.16
2022-11-24T10:18:52.448Z,6.71
2022-11-24T10:21:47.010Z,8.19
2022-11-24T10:24:22.548Z,9.42
2022-11-24T10:26:36.862Z,9.48
2022-11-24T10:28:52.783Z,8.39
2022-11-24T10:31:16.551Z,7.30
2022-11-24T10:33:28.774Z,6.51
2022-11-24T10:35:47.067Z,6.23
2022-11-24T10:37:58.131Z,7.29
2022-11-24T10:40:33.396Z,8.50
2022-11-24T10:42:37.485Z,9.49
2022-11-24T10:44:42.939Z,8.96
2022-11-24T10:46:46.079Z,8.11
2022-11-24T10:48:57.938Z,7.36
2022-11-24T10:51:35.590Z,6.74
2022-11-24T10:53:42.177Z,6.21
2022-11-24T10:55:54.170Z,6.18
2022-11-24T10:58:15.549Z,7.40
2022-11-24T11:00:18.309Z,8.72
2022-11-24T11:03:16.797Z,9.36
2022-11-24T11:05:32.407Z,8.35
2022-11-24T11:07:35.352Z,7.52
2022-11-24T11:09:38.296Z,6.96
2022-11-24T11:11:41.978Z,6.58
2022-11-24T11:14:03.082Z,6.32
2022-11-24T11:16:23.650Z,6.31
2022-11-24T11:18:36.314Z,7.50
2022-11-24T11:20:39.108Z,8.79
2022-11-24T11:22:45.131Z,9.84
2022-11-24T11:25:01.183Z,10.24
2022-11-24T11:27:16.359Z,9.52
2022-11-24T11:34:28.615Z,6.86
2022-11-24T11:36:33.190Z,6.66
2022-11-24T11:38:39.767Z,7.82
2022-11-24T11:40:43.937Z,9.36
2022-11-24T11:43:03.938Z,10.17
2022-11-24T11:45:18.434Z,9.56
2022-11-24T11:47:29.439Z,8.52
2022-11-24T11:49:39.493Z,7.67
2022-11-24T11:51:49.320Z,6.92
2022-11-24T11:54:11.088Z,7.10
2022-11-24T11:56:23.307Z,8.79
2022-11-24T11:59:00.802Z,9.83
2022-11-24T12:01:26.098Z,9.10
2022-11-24T12:03:47.349Z,7.89
2022-11-24T12:06:34.621Z,7.00
2022-11-24T12:09:21.505Z,6.25
2022-11-24T12:11:35.336Z,6.78
2022-11-24T12:13:53.033Z,8.26
2022-11-24T12:15:59.018Z,8.81
2022-11-24T12:18:56.673Z,8.98
2022-11-24T12:21:25.946Z,8.25
2022-11-24T12:23:38.391Z,7.26
2022-11-24T12:25:47.595Z,6.59
2022-11-24T12:28:19.293Z,6.10
2022-11-24T12:30:23.024Z,6.06
2022-11-24T12:33:03.693Z,7.34
2022-11-24T12:35:06.437Z,9.23
2022-11-24T12:37:47.345Z,10.00
2022-11-24T12:40:01.797Z,8.79
2022-11-24T12:42:43.937Z,7.68
2022-11-24T12:45:13.620Z,6.74
2022-11-24T12:47:40.663Z,6.58
2022-11-24T12:50:13.005Z,7.98
2022-11-24T12:52:36.911Z,9.05
2022-11-24T12:54:41.244Z,9.12
2022-11-24T12:57:09.269Z,8.41
2022-11-24T12:59:27.936Z,7.43
2022-11-24T13:01:37.725Z,6.97
2022-11-24T13:03:46.398Z,7.78
2022-11-24T13:06:07.797Z,8.83
2022-11-24T13:08:11.171Z,9.29
2022-11-24T13:13:06.320Z,7.69
2022-11-24T13:15:43.333Z,6.85
2022-11-24T13:18:01.157Z,6.27
2022-11-24T13:20:37.328Z,6.09
2022-11-24T13:22:45.483Z,6.20
2022-11-24T13:25:15.001Z,6.38
2022-11-24T13:27:24.502Z,6.60
2022-11-24T13:29:27.192Z,7.12
2022-11-24T13:31:30.240Z,7.62
2022-11-24T13:33:34.098Z,8.03
2022-11-24T13:35:37.740Z,8.31
2022-11-24T13:37:40.559Z,8.47
2022-11-24T13:40:03.366Z,8.54
2022-11-24T13:42:06.273Z,8.79
2022-11-24T13:44:24.301Z,8.64
2022-11-24T13:47:00.201Z,7.91
2022-11-24T13:49:14.563Z,7.05
2022-11-24T13:51:24.052Z,7.25
2022-11-24T13:53:47.698Z,7.90
2022-11-24T13:55:59.771Z,8.31
2022-11-24T13:58:31.767Z,8.48
2022-11-24T14:00:58.451Z,8.62
2022-11-24T14:03:06.883Z,9.39
2022-11-24T14:05:14.699Z,9.61
2022-11-24T14:07:17.729Z,8.62
2022-11-24T14:09:46.618Z,7.62
2022-11-24T14:12:16.306Z,6.67
2022-11-24T14:14:23.042Z,6.22
2022-11-24T14:16:26.115Z,6.54
2022-11-24T14:18:29.303Z,7.05
2022-11-24T14:20:32.060Z,7.15
2022-11-24T14:22:39.408Z,7.39
2022-11-24T14:24:45.482Z,7.96
2022-11-24T14:26:49.166Z,8.47
2022-11-24T14:28:53.848Z,8.64
2022-11-24T14:31:08.703Z,8.63
2022-11-24T14:33:12.876Z,8.66
2022-11-24T14:35:24.176Z,8.69
2022-11-24T14:37:27.044Z,8.73
2022-11-24T14:39:30.340Z,8.93
2022-11-24T14:41:34.042Z,9.14
2022-11-24T14:43:36.923Z,9.27
2022-11-24T14:45:48.311Z,9.42
2022-11-24T14:47:51.131Z,9.53
2022-11-24T14:49:56.058Z,8.79
2022-11-24T14:52:03.216Z,7.84
2022-11-24T14:56:39.593Z,6.60
2022-11-24T14:58:42.710Z,6.91
2022-11-24T15:00:45.686Z,7.70
2022-11-24T15:02:54.269Z,8.39
2022-11-24T15:05:03.383Z,8.69
2022-11-24T15:07:23.869Z,8.91
2022-11-24T15:09:50.531Z,8.99
2022-11-24T15:11:54.713Z,8.84
2022-11-24T15:13:57.452Z,9.00
2022-11-24T15:16:03.935Z,9.33
2022-11-24T15:18:25.888Z,9.01
2022-11-24T15:20:35.161Z,7.89
2022-11-24T15:22:44.287Z,6.98
2022-11-24T15:24:53.423Z,6.59
2022-11-24T15:27:00.840Z,7.76
2022-11-24T15:29:03.648Z,9.05
2022-11-24T15:31:10.888Z,9.52
2022-11-24T15:33:18.325Z,9.60
2022-11-24T15:35:22.964Z,8.77
2022-11-24T15:37:28.863Z,7.80
2022-11-24T15:39:35.700Z,6.97
2022-11-24T15:41:38.478Z,6.36
2022-11-24T15:43:41.471Z,6.48
2022-11-24T15:45:44.278Z,7.59
2022-11-24T15:47:47.334Z,8.84
2022-11-24T15:49:50.219Z,9.35
2022-11-24T15:51:53.031Z,9.33
2022-11-24T15:54:14.045Z,8.42
2022-11-24T15:56:25.576Z,7.52
2022-11-24T15:58:28.399Z,6.78
2022-11-24T16:00:32.846Z,6.42
2022-11-24T16:02:35.647Z,7.22
2022-11-24T16:04:41.666Z,8.54
2022-11-24T16:06:44.528Z,9.64
2022-11-24T16:08:47.822Z,10.13
2022-11-24T16:10:51.357Z,9.52
2022-11-24T16:12:54.098Z,8.49
2022-11-24T16:14:56.978Z,7.64
2022-11-24T16:16:59.730Z,7.00
2022-11-24T16:19:03.037Z,6.50
2022-11-24T16:21:07.259Z,6.18
2022-11-24T16:23:10.036Z,6.64
2022-11-24T16:25:13.219Z,7.19
2022-11-24T16:27:16.039Z,7.82
2022-11-24T16:29:21.051Z,8.86
2022-11-24T16:31:23.935Z,9.75
2022-11-24T16:33:29.000Z,10.10
2022-11-24T16:35:31.879Z,9.38
2022-11-24T16:37:34.754Z,8.42
2022-11-24T16:39:37.507Z,7.66
2022-11-24T16:41:40.857Z,7.07
2022-11-24T16:53:24.925Z,10.24
2022-11-24T16:55:27.670Z,9.70
2022-11-24T16:57:30.461Z,8.72
2022-11-24T16:59:33.973Z,7.90
2022-11-24T17:01:37.334Z,7.28
2022-11-24T17:03:41.115Z,6.79
2022-11-24T17:05:44.007Z,6.59
2022-11-24T17:07:46.844Z,7.48
2022-11-24T17:09:49.678Z,8.56
2022-11-24T17:11:52.564Z,9.15
2022-11-24T17:13:57.931Z,9.40
2022-11-24T17:16:08.916Z,9.73
2022-11-24T17:18:28.365Z,9.98
2022-11-24T17:20:31.644Z,9.17
2022-11-24T17:22:34.465Z,8.28
2022-11-24T17:24:37.293Z,7.59
2022-11-24T17:26:44.667Z,7.05
2022-11-24T17:28:50.475Z,6.81
2022-11-24T17:30:53.312Z,7.65
2022-11-24T17:32:57.336Z,8.83
2022-11-24T17:35:00.141Z,9.43
2022-11-24T17:37:03.675Z,10.09
2022-11-24T17:39:07.368Z,10.11
2022-11-24T17:41:11.316Z,9.25
2022-11-24T17:43:14.138Z,8.34
2022-11-24T17:45:17.222Z,7.64
2022-11-24T17:47:19.989Z,7.10
2022-11-24T17:49:23.388Z,6.89
2022-11-24T17:51:27.176Z,8.17
2022-11-24T17:53:30.941Z,9.66
2022-11-24T17:55:33.744Z,10.12
2022-11-24T17:57:36.708Z,9.43
2022-11-24T17:59:39.476Z,8.51
2022-11-24T18:01:42.458Z,7.75
2022-11-24T18:03:48.985Z,7.16
2022-11-24T18:05:56.058Z,6.87
2022-11-24T18:07:59.921Z,8.03
2022-11-24T18:10:03.372Z,9.34
2022-11-24T18:12:07.317Z,9.79
2022-11-24T18:14:10.199Z,9.88
2022-11-24T18:16:13.956Z,9.16
2022-11-24T18:18:16.885Z,8.26
2022-11-24T18:20:19.782Z,7.53
2022-11-24T18:22:43.017Z,6.97
2022-11-24T18:24:45.525Z,6.66
2022-11-24T18:26:48.278Z,6.86
2022-11-24T18:28:51.333Z,6.87
2022-11-24T18:31:01.275Z,6.82
2022-11-24T18:33:04.090Z,6.76
2022-11-24T18:35:07.343Z,6.68
2022-11-24T18:37:13.510Z,6.61
2022-11-24T18:39:18.219Z,6.52
2022-11-24T18:41:22.328Z,6.37
2022-11-24T18:43:27.511Z,6.28
2022-11-24T18:45:30.655Z,6.20
2022-11-24T18:47:33.644Z,6.49
2022-11-24T18:49:36.490Z,7.55
2022-11-24T18:51:39.284Z,8.79
2022-11-24T18:53:44.060Z,9.62
2022-11-24T18:56:05.404Z,10.18
2022-11-24T18:58:08.227Z,9.66
2022-11-24T19:00:11.695Z,8.67
2022-11-24T19:02:14.637Z,7.83
2022-11-24T19:04:17.545Z,7.19
2022-11-24T19:06:29.048Z,6.90
2022-11-24T19:08:32.054Z,8.06
2022-11-24T19:10:39.170Z,9.16
2022-11-24T19:12:42.634Z,10.04
2022-11-24T19:14:45.544Z,10.58
2022-11-24T19:16:48.529Z,9.91
2022-11-24T19:18:54.326Z,8.93
2022-11-24T19:20:58.285Z,8.11
2022-11-24T19:23:01.262Z,7.48
2022-11-24T19:25:04.422Z,6.99
2022-11-24T19:27:08.006Z,6.89
2022-11-24T19:29:11.342Z,8.22
2022-11-24T19:31:15.958Z,9.71
2022-11-24T19:33:19.057Z,10.72
2022-11-24T19:35:21.978Z,10.82
2022-11-24T19:37:24.746Z,9.84
2022-11-24T19:39:27.904Z,8.79
2022-11-24T19:41:32.087Z,7.96
2022-11-24T19:43:35.217Z,7.34
2022-11-24T19:45:44.025Z,6.84
2022-11-24T19:47:46.959Z,6.76
2022-11-24T19:49:49.856Z,8.22
2022-11-24T19:51:53.574Z,9.65
2022-11-24T19:53:57.029Z,10.40
2022-11-24T19:56:07.576Z,10.47
2022-11-24T19:58:10.384Z,9.52
2022-11-24T20:00:14.709Z,8.54
2022-11-24T20:02:18.362Z,7.76
2022-11-24T20:04:21.524Z,7.14
2022-11-24T20:06:25.878Z,6.86
2022-11-24T20:08:31.231Z,7.99
2022-11-24T20:10:34.015Z,9.49
2022-11-24T20:12:36.782Z,10.47
2022-11-24T20:14:39.848Z,10.70
2022-11-24T20:16:43.452Z,9.87
2022-11-24T20:18:47.726Z,8.88
2022-11-24T20:20:50.573Z,8.08
2022-11-24T20:22:53.582Z,7.49
2022-11-24T20:24:56.451Z,7.00
2022-11-24T20:27:00.157Z,6.76
2022-11-24T20:29:04.091Z,7.16
2022-11-24T20:31:13.177Z,7.41
2022-11-24T20:33:16.139Z,7.73
2022-11-24T20:35:19.073Z,8.44
2022-11-24T20:37:22.727Z,9.60
2022-11-24T20:39:27.849Z,10.65
2022-11-24T20:41:34.065Z,11.08
2022-11-24T20:43:38.224Z,10.22
2022-11-24T20:45:41.159Z,9.18
2022-11-24T20:47:43.991Z,8.33
2022-11-24T20:49:46.839Z,7.70
2022-11-24T20:51:54.507Z,7.18
2022-11-24T20:54:00.698Z,6.84
2022-11-24T20:56:26.431Z,7.57
2022-11-24T20:58:29.286Z,9.74
2022-11-24T21:00:32.115Z,10.97
2022-11-24T21:02:35.030Z,11.31
2022-11-24T21:04:38.349Z,10.37
2022-11-24T21:06:41.737Z,9.29
2022-11-24T21:08:44.790Z,8.42
2022-11-24T21:10:58.825Z,7.78
2022-11-24T21:13:01.687Z,7.23
2022-11-24T21:15:07.676Z,7.08
2022-11-24T21:17:10.730Z,8.26
2022-11-24T21:19:15.050Z,9.78
2022-11-24T21:21:20.068Z,10.92
2022-11-24T21:23:22.848Z,11.03
2022-11-24T21:25:25.688Z,10.03
2022-11-24T21:27:28.863Z,9.00
2022-11-24T21:29:31.695Z,8.18
2022-11-24T21:31:37.146Z,7.56
2022-11-24T21:34:00.230Z,7.27
2022-11-24T21:36:04.939Z,8.61
2022-11-24T21:38:07.791Z,9.87
2022-11-24T21:40:11.151Z,10.53
2022-11-24T21:42:13.974Z,9.95
2022-11-24T21:44:16.855Z,9.01
2022-11-24T21:46:19.840Z,8.22
2022-11-24T21:48:22.689Z,7.63
2022-11-24T21:50:25.698Z,7.31
2022-11-24T21:52:28.472Z,7.89
2022-11-24T21:54:31.200Z,8.50
2022-11-24T21:56:34.056Z,9.10
2022-11-24T21:58:36.815Z,9.89
2022-11-24T22:00:39.720Z,10.59
2022-11-24T22:02:57.805Z,10.90
2022-11-24T22:06:35.143Z,9.35
2022-11-24T22:08:38.271Z,8.57
2022-11-24T22:10:41.026Z,7.96
2022-11-24T22:12:43.919Z,7.47
2022-11-24T22:14:46.782Z,7.17
2022-11-24T22:16:49.673Z,7.59
2022-11-24T22:18:52.825Z,8.00
2022-11-24T22:20:56.364Z,8.06
2022-11-24T22:22:59.179Z,8.17
2022-11-24T22:25:01.947Z,8.71
2022-11-24T22:27:04.771Z,9.45
2022-11-24T22:29:08.639Z,10.56
2022-11-24T22:31:14.591Z,11.11
2022-11-24T22:33:17.407Z,10.34
2022-11-24T22:35:20.239Z,9.35
2022-11-24T22:37:23.123Z,8.54
2022-11-24T22:39:25.899Z,7.94
2022-11-24T22:41:30.032Z,7.62
2022-11-24T22:43:34.464Z,8.15
2022-11-24T22:45:37.407Z,8.62
2022-11-24T22:47:40.239Z,9.00
2022-11-24T22:49:43.008Z,9.87
2022-11-24T22:51:45.794Z,10.89
2022-11-24T22:53:50.576Z,11.35
2022-11-24T22:55:53.353Z,10.61
2022-11-24T22:57:57.201Z,9.63
2022-11-24T23:00:00.083Z,8.83
2022-11-24T23:02:02.856Z,8.20
2022-11-24T23:04:05.730Z,7.67
2022-11-24T23:06:12.278Z,7.38
2022-11-24T23:08:15.093Z,8.12
2022-11-24T23:10:18.142Z,9.40
2022-11-24T23:12:20.923Z,10.41
2022-11-24T23:14:23.703Z,10.92
2022-11-24T23:16:26.792Z,10.28
2022-11-24T23:18:30.151Z,9.28
2022-11-24T23:20:35.220Z,8.38
2022-11-24T23:22:38.072Z,7.71
2022-11-24T23:24:41.029Z,7.19
2022-11-24T23:26:43.852Z,6.85
2022-11-24T23:28:47.177Z,7.38
2022-11-24T23:30:49.973Z,8.64
2022-11-24T23:32:52.790Z,9.78
2022-11-24T23:34:55.585Z,10.56
2022-11-24T23:36:58.306Z,10.82
2022-11-24T23:39:06.577Z,10.03
2022-11-24T23:41:12.455Z,8.97
2022-11-24T23:43:15.266Z,8.13
2022-11-24T23:45:18.013Z,7.53
2022-11-24T23:47:20.821Z,7.16
2022-11-24T23:49:23.583Z,7.68
2022-11-24T23:51:29.123Z,8.81
2022-11-24T23:53:35.737Z,9.89
2022-11-24T23:55:38.470Z,10.77
2022-11-24T23:57:41.240Z,11.11
2022-11-24T23:59:44.087Z,10.33
